sensor_id;sensor_type;location;lat;lon;timestamp;P1;durP1;ratioP1;P2;durP2;ratioP2
10711;SDS011;5407;51.234;6.804;2024-02-04T00:01:54;6.80;;;4.30;;
10711;SDS011;5407;51.234;6.804;2024-02-04T00:04:22;4.37;;;3.70;;
10711;SDS011;5407;51.234;6.804;2024-02-04T00:06:49;4.27;;;3.67;;
10711;SDS011;5407;51.234;6.804;2024-02-04T00:09:16;6.90;;;3.40;;
10711;SDS011;5407;51.234;6.804;2024-02-04T00:11:43;4.27;;;3.30;;
10711;SDS011;5407;51.234;6.804;2024-02-04T00:14:11;5.60;;;3.60;;
10711;SDS011;5407;51.234;6.804;2024-02-04T00:16:39;4.87;;;3.00;;
10711;SDS011;5407;51.234;6.804;2024-02-04T00:19:06;3.30;;;2.73;;
10711;SDS011;5407;51.234;6.804;2024-02-04T00:21:33;6.67;;;3.10;;
10711;SDS011;5407;51.234;6.804;2024-02-04T00:24:00;4.27;;;3.40;;
10711;SDS011;5407;51.234;6.804;2024-02-04T00:26:27;5.50;;;3.70;;
10711;SDS011;5407;51.234;6.804;2024-02-04T00:28:54;4.20;;;3.80;;
10711;SDS011;5407;51.234;6.804;2024-02-04T00:31:21;4.37;;;4.07;;
10711;SDS011;5407;51.234;6.804;2024-02-04T00:33:49;4.60;;;4.20;;
10711;SDS011;5407;51.234;6.804;2024-02-04T00:36:16;5.10;;;4.70;;
10711;SDS011;5407;51.234;6.804;2024-02-04T00:38:44;6.30;;;5.27;;
10711;SDS011;5407;51.234;6.804;2024-02-04T00:41:11;5.97;;;5.47;;
10711;SDS011;5407;51.234;6.804;2024-02-04T00:43:38;6.47;;;5.97;;
10711;SDS011;5407;51.234;6.804;2024-02-04T00:46:04;6.57;;;5.97;;
10711;SDS011;5407;51.234;6.804;2024-02-04T00:48:33;7.43;;;6.83;;
10711;SDS011;5407;51.234;6.804;2024-02-04T00:51:01;7.60;;;6.90;;
10711;SDS011;5407;51.234;6.804;2024-02-04T00:53:28;8.13;;;7.33;;
10711;SDS011;5407;51.234;6.804;2024-02-04T00:55:59;8.67;;;7.93;;
10711;SDS011;5407;51.234;6.804;2024-02-04T00:58:26;9.03;;;8.23;;
10711;SDS011;5407;51.234;6.804;2024-02-04T01:00:54;9.20;;;8.40;;
10711;SDS011;5407;51.234;6.804;2024-02-04T01:03:21;9.53;;;8.63;;
10711;SDS011;5407;51.234;6.804;2024-02-04T01:05:50;9.03;;;8.20;;
10711;SDS011;5407;51.234;6.804;2024-02-04T01:08:19;9.67;;;8.87;;
10711;SDS011;5407;51.234;6.804;2024-02-04T01:10:46;9.40;;;8.60;;
10711;SDS011;5407;51.234;6.804;2024-02-04T01:13:12;9.97;;;8.40;;
10711;SDS011;5407;51.234;6.804;2024-02-04T01:15:39;9.13;;;8.33;;
10711;SDS011;5407;51.234;6.804;2024-02-04T01:18:06;9.47;;;8.67;;
10711;SDS011;5407;51.234;6.804;2024-02-04T01:20:33;9.50;;;8.57;;
10711;SDS011;5407;51.234;6.804;2024-02-04T01:23:02;9.57;;;8.67;;
10711;SDS011;5407;51.234;6.804;2024-02-04T01:25:30;9.00;;;8.20;;
10711;SDS011;5407;51.234;6.804;2024-02-04T01:27:57;8.97;;;8.17;;
10711;SDS011;5407;51.234;6.804;2024-02-04T01:30:24;8.67;;;7.87;;
10711;SDS011;5407;51.234;6.804;2024-02-04T01:32:51;9.20;;;8.30;;
10711;SDS011;5407;51.234;6.804;2024-02-04T01:35:18;9.27;;;8.37;;
10711;SDS011;5407;51.234;6.804;2024-02-04T01:37:45;9.23;;;8.23;;
10711;SDS011;5407;51.234;6.804;2024-02-04T01:40:13;9.53;;;8.37;;
10711;SDS011;5407;51.234;6.804;2024-02-04T01:42:42;9.20;;;8.23;;
10711;SDS011;5407;51.234;6.804;2024-02-04T01:45:09;11.33;;;8.40;;
10711;SDS011;5407;51.234;6.804;2024-02-04T01:47:36;9.40;;;8.47;;
10711;SDS011;5407;51.234;6.804;2024-02-04T01:50:04;9.57;;;8.10;;
10711;SDS011;5407;51.234;6.804;2024-02-04T01:52:32;7.97;;;7.27;;
10711;SDS011;5407;51.234;6.804;2024-02-04T01:55:03;9.37;;;7.70;;
10711;SDS011;5407;51.234;6.804;2024-02-04T01:57:31;8.30;;;7.50;;
10711;SDS011;5407;51.234;6.804;2024-02-04T02:00:01;8.40;;;7.60;;
10711;SDS011;5407;51.234;6.804;2024-02-04T02:02:30;8.00;;;7.20;;
10711;SDS011;5407;51.234;6.804;2024-02-04T02:05:00;9.53;;;7.10;;
10711;SDS011;5407;51.234;6.804;2024-02-04T02:07:28;9.73;;;7.20;;
10711;SDS011;5407;51.234;6.804;2024-02-04T02:09:54;7.90;;;6.77;;
10711;SDS011;5407;51.234;6.804;2024-02-04T02:12:22;6.73;;;6.07;;
10711;SDS011;5407;51.234;6.804;2024-02-04T02:14:54;7.10;;;6.40;;
10711;SDS011;5407;51.234;6.804;2024-02-04T02:17:29;6.60;;;6.10;;
10711;SDS011;5407;51.234;6.804;2024-02-04T02:20:05;8.17;;;6.60;;
10711;SDS011;5407;51.234;6.804;2024-02-04T02:22:39;7.07;;;6.43;;
10711;SDS011;5407;51.234;6.804;2024-02-04T02:25:15;6.30;;;5.80;;
10711;SDS011;5407;51.234;6.804;2024-02-04T02:27:46;6.80;;;6.10;;
10711;SDS011;5407;51.234;6.804;2024-02-04T02:30:14;6.50;;;5.90;;
10711;SDS011;5407;51.234;6.804;2024-02-04T02:32:42;7.23;;;6.30;;
10711;SDS011;5407;51.234;6.804;2024-02-04T02:35:10;6.00;;;5.50;;
10711;SDS011;5407;51.234;6.804;2024-02-04T02:37:40;6.50;;;5.90;;
10711;SDS011;5407;51.234;6.804;2024-02-04T02:40:12;6.40;;;5.80;;
10711;SDS011;5407;51.234;6.804;2024-02-04T02:42:48;6.43;;;5.83;;
10711;SDS011;5407;51.234;6.804;2024-02-04T02:45:18;6.20;;;5.70;;
10711;SDS011;5407;51.234;6.804;2024-02-04T02:47:46;6.67;;;6.07;;
10711;SDS011;5407;51.234;6.804;2024-02-04T02:50:14;6.60;;;5.97;;
10711;SDS011;5407;51.234;6.804;2024-02-04T02:52:41;6.30;;;5.67;;
10711;SDS011;5407;51.234;6.804;2024-02-04T02:55:08;6.97;;;6.27;;
10711;SDS011;5407;51.234;6.804;2024-02-04T02:57:37;6.10;;;5.50;;
10711;SDS011;5407;51.234;6.804;2024-02-04T03:00:04;5.97;;;5.47;;
10711;SDS011;5407;51.234;6.804;2024-02-04T03:02:33;7.00;;;5.90;;
10711;SDS011;5407;51.234;6.804;2024-02-04T03:04:59;6.63;;;6.03;;
10711;SDS011;5407;51.234;6.804;2024-02-04T03:07:26;6.27;;;5.67;;
10711;SDS011;5407;51.234;6.804;2024-02-04T03:09:53;6.73;;;6.03;;
10711;SDS011;5407;51.234;6.804;2024-02-04T03:12:20;6.53;;;5.93;;
10711;SDS011;5407;51.234;6.804;2024-02-04T03:14:48;6.00;;;5.40;;
10711;SDS011;5407;51.234;6.804;2024-02-04T03:17:15;6.50;;;5.90;;
10711;SDS011;5407;51.234;6.804;2024-02-04T03:19:46;6.87;;;6.27;;
10711;SDS011;5407;51.234;6.804;2024-02-04T03:22:14;7.17;;;6.47;;
10711;SDS011;5407;51.234;6.804;2024-02-04T03:24:40;7.00;;;6.30;;
10711;SDS011;5407;51.234;6.804;2024-02-04T03:27:07;7.27;;;6.57;;
10711;SDS011;5407;51.234;6.804;2024-02-04T03:29:34;7.33;;;6.60;;
10711;SDS011;5407;51.234;6.804;2024-02-04T03:32:03;6.83;;;6.27;;
10711;SDS011;5407;51.234;6.804;2024-02-04T03:34:30;8.23;;;6.20;;
10711;SDS011;5407;51.234;6.804;2024-02-04T03:36:57;6.23;;;5.73;;
10711;SDS011;5407;51.234;6.804;2024-02-04T03:39:24;6.77;;;6.17;;
10711;SDS011;5407;51.234;6.804;2024-02-04T03:41:51;7.20;;;6.57;;
10711;SDS011;5407;51.234;6.804;2024-02-04T03:44:19;7.27;;;6.67;;
10711;SDS011;5407;51.234;6.804;2024-02-04T03:46:47;6.67;;;6.07;;
10711;SDS011;5407;51.234;6.804;2024-02-04T03:49:15;6.90;;;6.20;;
10711;SDS011;5407;51.234;6.804;2024-02-04T03:51:43;7.13;;;6.53;;
10711;SDS011;5407;51.234;6.804;2024-02-04T03:54:10;7.30;;;6.70;;
10711;SDS011;5407;51.234;6.804;2024-02-04T03:56:36;7.90;;;7.20;;
10711;SDS011;5407;51.234;6.804;2024-02-04T03:59:03;8.43;;;7.50;;
10711;SDS011;5407;51.234;6.804;2024-02-04T04:01:31;8.57;;;7.70;;
10711;SDS011;5407;51.234;6.804;2024-02-04T04:03:58;9.93;;;8.00;;
10711;SDS011;5407;51.234;6.804;2024-02-04T04:06:26;8.57;;;7.77;;
10711;SDS011;5407;51.234;6.804;2024-02-04T04:08:53;10.43;;;9.43;;
10711;SDS011;5407;51.234;6.804;2024-02-04T04:11:20;11.57;;;9.73;;
10711;SDS011;5407;51.234;6.804;2024-02-04T04:13:48;11.30;;;10.07;;
10711;SDS011;5407;51.234;6.804;2024-02-04T04:16:14;12.07;;;10.10;;
10711;SDS011;5407;51.234;6.804;2024-02-04T04:18:41;11.87;;;10.77;;
10711;SDS011;5407;51.234;6.804;2024-02-04T04:21:08;12.03;;;10.30;;
10711;SDS011;5407;51.234;6.804;2024-02-04T04:23:36;12.70;;;11.20;;
10711;SDS011;5407;51.234;6.804;2024-02-04T04:26:03;14.00;;;12.60;;
10711;SDS011;5407;51.234;6.804;2024-02-04T04:28:30;13.27;;;11.87;;
10711;SDS011;5407;51.234;6.804;2024-02-04T04:30:57;14.73;;;12.20;;
10711;SDS011;5407;51.234;6.804;2024-02-04T04:33:24;13.83;;;11.47;;
10711;SDS011;5407;51.234;6.804;2024-02-04T04:35:51;13.70;;;12.40;;
10711;SDS011;5407;51.234;6.804;2024-02-04T04:38:18;12.77;;;11.57;;
10711;SDS011;5407;51.234;6.804;2024-02-04T04:40:46;14.57;;;13.07;;
10711;SDS011;5407;51.234;6.804;2024-02-04T04:43:13;15.50;;;12.57;;
10711;SDS011;5407;51.234;6.804;2024-02-04T04:45:40;15.33;;;13.13;;
10711;SDS011;5407;51.234;6.804;2024-02-04T04:48:07;14.50;;;13.07;;
10711;SDS011;5407;51.234;6.804;2024-02-04T04:50:34;14.20;;;12.70;;
10711;SDS011;5407;51.234;6.804;2024-02-04T04:53:01;16.13;;;12.67;;
10711;SDS011;5407;51.234;6.804;2024-02-04T04:55:28;14.37;;;12.23;;
10711;SDS011;5407;51.234;6.804;2024-02-04T04:57:56;14.90;;;12.53;;
10711;SDS011;5407;51.234;6.804;2024-02-04T05:00:23;15.87;;;13.47;;
10711;SDS011;5407;51.234;6.804;2024-02-04T05:02:50;14.07;;;12.67;;
10711;SDS011;5407;51.234;6.804;2024-02-04T05:05:17;15.07;;;13.57;;
10711;SDS011;5407;51.234;6.804;2024-02-04T05:07:44;15.80;;;13.33;;
10711;SDS011;5407;51.234;6.804;2024-02-04T05:10:12;17.40;;;14.57;;
10711;SDS011;5407;51.234;6.804;2024-02-04T05:12:39;17.33;;;15.37;;
10711;SDS011;5407;51.234;6.804;2024-02-04T05:15:08;16.50;;;14.90;;
10711;SDS011;5407;51.234;6.804;2024-02-04T05:17:35;17.33;;;15.43;;
10711;SDS011;5407;51.234;6.804;2024-02-04T05:20:02;16.67;;;14.97;;
10711;SDS011;5407;51.234;6.804;2024-02-04T05:22:30;19.37;;;15.17;;
10711;SDS011;5407;51.234;6.804;2024-02-04T05:24:57;16.07;;;14.40;;
10711;SDS011;5407;51.234;6.804;2024-02-04T05:27:24;18.43;;;14.37;;
10711;SDS011;5407;51.234;6.804;2024-02-04T05:29:51;16.40;;;14.10;;
10711;SDS011;5407;51.234;6.804;2024-02-04T05:32:19;16.30;;;14.70;;
10711;SDS011;5407;51.234;6.804;2024-02-04T05:34:46;16.33;;;14.63;;
10711;SDS011;5407;51.234;6.804;2024-02-04T05:37:12;17.20;;;14.00;;
10711;SDS011;5407;51.234;6.804;2024-02-04T05:39:39;16.07;;;14.37;;
10711;SDS011;5407;51.234;6.804;2024-02-04T05:42:06;16.43;;;14.57;;
10711;SDS011;5407;51.234;6.804;2024-02-04T05:44:33;16.43;;;14.10;;
10711;SDS011;5407;51.234;6.804;2024-02-04T05:47:00;18.47;;;15.20;;
10711;SDS011;5407;51.234;6.804;2024-02-04T05:49:28;17.60;;;15.10;;
10711;SDS011;5407;51.234;6.804;2024-02-04T05:51:55;19.87;;;15.23;;
10711;SDS011;5407;51.234;6.804;2024-02-04T05:54:22;21.30;;;16.03;;
10711;SDS011;5407;51.234;6.804;2024-02-04T05:56:48;17.43;;;15.03;;
10711;SDS011;5407;51.234;6.804;2024-02-04T05:59:15;16.43;;;14.57;;
10711;SDS011;5407;51.234;6.804;2024-02-04T06:01:42;22.23;;;15.63;;
10711;SDS011;5407;51.234;6.804;2024-02-04T06:04:10;20.73;;;15.00;;
10711;SDS011;5407;51.234;6.804;2024-02-04T06:06:38;16.67;;;14.00;;
10711;SDS011;5407;51.234;6.804;2024-02-04T06:09:05;18.67;;;13.93;;
10711;SDS011;5407;51.234;6.804;2024-02-04T06:11:33;16.87;;;13.47;;
10711;SDS011;5407;51.234;6.804;2024-02-04T06:14:00;18.73;;;13.43;;
10711;SDS011;5407;51.234;6.804;2024-02-04T06:16:27;14.57;;;12.90;;
10711;SDS011;5407;51.234;6.804;2024-02-04T06:18:54;17.80;;;13.07;;
10711;SDS011;5407;51.234;6.804;2024-02-04T06:21:23;15.40;;;12.83;;
10711;SDS011;5407;51.234;6.804;2024-02-04T06:23:51;16.27;;;13.17;;
10711;SDS011;5407;51.234;6.804;2024-02-04T06:26:18;16.67;;;13.37;;
10711;SDS011;5407;51.234;6.804;2024-02-04T06:28:45;16.40;;;12.27;;
10711;SDS011;5407;51.234;6.804;2024-02-04T06:31:14;17.50;;;13.00;;
10711;SDS011;5407;51.234;6.804;2024-02-04T06:33:40;16.90;;;12.63;;
10711;SDS011;5407;51.234;6.804;2024-02-04T06:36:08;15.20;;;12.97;;
10711;SDS011;5407;51.234;6.804;2024-02-04T06:38:35;15.47;;;12.07;;
10711;SDS011;5407;51.234;6.804;2024-02-04T06:41:03;17.93;;;13.17;;
10711;SDS011;5407;51.234;6.804;2024-02-04T06:43:30;14.53;;;12.67;;
10711;SDS011;5407;51.234;6.804;2024-02-04T06:45:57;15.80;;;13.07;;
10711;SDS011;5407;51.234;6.804;2024-02-04T06:48:24;14.63;;;13.03;;
10711;SDS011;5407;51.234;6.804;2024-02-04T06:50:51;17.77;;;13.80;;
10711;SDS011;5407;51.234;6.804;2024-02-04T06:53:18;15.73;;;13.10;;
10711;SDS011;5407;51.234;6.804;2024-02-04T06:55:44;17.60;;;13.83;;
10711;SDS011;5407;51.234;6.804;2024-02-04T06:58:12;16.53;;;13.70;;
10711;SDS011;5407;51.234;6.804;2024-02-04T07:00:39;18.50;;;14.43;;
10711;SDS011;5407;51.234;6.804;2024-02-04T07:03:06;17.37;;;13.20;;
10711;SDS011;5407;51.234;6.804;2024-02-04T07:05:33;14.10;;;12.53;;
10711;SDS011;5407;51.234;6.804;2024-02-04T07:08:00;13.90;;;12.53;;
10711;SDS011;5407;51.234;6.804;2024-02-04T07:10:27;14.03;;;12.57;;
10711;SDS011;5407;51.234;6.804;2024-02-04T07:12:54;14.07;;;12.07;;
10711;SDS011;5407;51.234;6.804;2024-02-04T07:15:22;12.60;;;11.30;;
10711;SDS011;5407;51.234;6.804;2024-02-04T07:17:49;12.47;;;11.13;;
10711;SDS011;5407;51.234;6.804;2024-02-04T07:20:16;12.47;;;11.27;;
10711;SDS011;5407;51.234;6.804;2024-02-04T07:22:42;11.50;;;10.30;;
10711;SDS011;5407;51.234;6.804;2024-02-04T07:25:09;11.80;;;10.40;;
10711;SDS011;5407;51.234;6.804;2024-02-04T07:27:36;12.00;;;9.17;;
10711;SDS011;5407;51.234;6.804;2024-02-04T07:30:04;9.53;;;8.27;;
10711;SDS011;5407;51.234;6.804;2024-02-04T07:32:33;9.00;;;8.07;;
10711;SDS011;5407;51.234;6.804;2024-02-04T07:35:02;8.47;;;7.73;;
10711;SDS011;5407;51.234;6.804;2024-02-04T07:37:29;10.73;;;7.53;;
10711;SDS011;5407;51.234;6.804;2024-02-04T07:39:56;8.60;;;6.90;;
10711;SDS011;5407;51.234;6.804;2024-02-04T07:42:23;7.83;;;6.83;;
10711;SDS011;5407;51.234;6.804;2024-02-04T07:44:50;9.83;;;6.73;;
10711;SDS011;5407;51.234;6.804;2024-02-04T07:47:16;9.50;;;6.47;;
10711;SDS011;5407;51.234;6.804;2024-02-04T07:49:46;9.67;;;6.50;;
10711;SDS011;5407;51.234;6.804;2024-02-04T07:52:13;7.07;;;5.73;;
10711;SDS011;5407;51.234;6.804;2024-02-04T07:54:40;7.10;;;5.60;;
10711;SDS011;5407;51.234;6.804;2024-02-04T07:57:08;6.50;;;5.13;;
10711;SDS011;5407;51.234;6.804;2024-02-04T07:59:35;6.10;;;5.20;;
10711;SDS011;5407;51.234;6.804;2024-02-04T08:02:02;5.40;;;4.90;;
10711;SDS011;5407;51.234;6.804;2024-02-04T08:04:29;6.33;;;5.17;;
10711;SDS011;5407;51.234;6.804;2024-02-04T08:06:58;5.03;;;4.53;;
10711;SDS011;5407;51.234;6.804;2024-02-04T08:09:25;5.53;;;5.00;;
10711;SDS011;5407;51.234;6.804;2024-02-04T08:11:52;6.00;;;5.03;;
10711;SDS011;5407;51.234;6.804;2024-02-04T08:14:19;6.60;;;5.50;;
10711;SDS011;5407;51.234;6.804;2024-02-04T08:16:46;7.67;;;5.83;;
10711;SDS011;5407;51.234;6.804;2024-02-04T08:19:13;7.40;;;5.77;;
10711;SDS011;5407;51.234;6.804;2024-02-04T08:21:40;6.63;;;5.83;;
10711;SDS011;5407;51.234;6.804;2024-02-04T08:24:08;8.53;;;5.80;;
10711;SDS011;5407;51.234;6.804;2024-02-04T08:26:35;6.50;;;5.30;;
10711;SDS011;5407;51.234;6.804;2024-02-04T08:29:02;9.37;;;5.40;;
10711;SDS011;5407;51.234;6.804;2024-02-04T08:31:32;6.47;;;4.97;;
10711;SDS011;5407;51.234;6.804;2024-02-04T08:33:59;7.67;;;5.00;;
10711;SDS011;5407;51.234;6.804;2024-02-04T08:36:28;5.60;;;5.10;;
10711;SDS011;5407;51.234;6.804;2024-02-04T08:38:56;5.30;;;4.67;;
10711;SDS011;5407;51.234;6.804;2024-02-04T08:41:24;5.10;;;4.37;;
10711;SDS011;5407;51.234;6.804;2024-02-04T08:43:51;7.53;;;4.63;;
10711;SDS011;5407;51.234;6.804;2024-02-04T08:46:18;4.80;;;4.40;;
10711;SDS011;5407;51.234;6.804;2024-02-04T08:48:45;5.60;;;4.30;;
10711;SDS011;5407;51.234;6.804;2024-02-04T08:51:12;5.23;;;4.73;;
10711;SDS011;5407;51.234;6.804;2024-02-04T08:53:41;4.83;;;4.33;;
10711;SDS011;5407;51.234;6.804;2024-02-04T08:56:08;7.13;;;5.00;;
10711;SDS011;5407;51.234;6.804;2024-02-04T08:58:36;7.83;;;5.37;;
10711;SDS011;5407;51.234;6.804;2024-02-04T09:01:03;5.67;;;5.17;;
10711;SDS011;5407;51.234;6.804;2024-02-04T09:03:30;5.93;;;5.07;;
10711;SDS011;5407;51.234;6.804;2024-02-04T09:05:58;5.43;;;4.97;;
10711;SDS011;5407;51.234;6.804;2024-02-04T09:08:25;7.60;;;5.60;;
10711;SDS011;5407;51.234;6.804;2024-02-04T09:10:52;6.20;;;5.17;;
10711;SDS011;5407;51.234;6.804;2024-02-04T09:13:18;5.87;;;5.37;;
10711;SDS011;5407;51.234;6.804;2024-02-04T09:15:47;6.07;;;5.47;;
10711;SDS011;5407;51.234;6.804;2024-02-04T09:18:14;8.07;;;5.20;;
10711;SDS011;5407;51.234;6.804;2024-02-04T09:20:41;6.03;;;4.97;;
10711;SDS011;5407;51.234;6.804;2024-02-04T09:23:08;5.87;;;5.37;;
10711;SDS011;5407;51.234;6.804;2024-02-04T09:25:35;7.67;;;4.57;;
10711;SDS011;5407;51.234;6.804;2024-02-04T09:28:02;6.93;;;4.40;;
10711;SDS011;5407;51.234;6.804;2024-02-04T09:30:29;4.70;;;4.30;;
10711;SDS011;5407;51.234;6.804;2024-02-04T09:32:58;8.83;;;4.60;;
10711;SDS011;5407;51.234;6.804;2024-02-04T09:35:28;6.37;;;4.77;;
10711;SDS011;5407;51.234;6.804;2024-02-04T09:37:55;5.20;;;4.53;;
10711;SDS011;5407;51.234;6.804;2024-02-04T09:40:22;6.60;;;5.57;;
10711;SDS011;5407;51.234;6.804;2024-02-04T09:42:49;5.93;;;5.30;;
10711;SDS011;5407;51.234;6.804;2024-02-04T09:45:17;5.70;;;4.97;;
10711;SDS011;5407;51.234;6.804;2024-02-04T09:47:44;8.47;;;5.00;;
10711;SDS011;5407;51.234;6.804;2024-02-04T09:50:13;8.50;;;5.33;;
10711;SDS011;5407;51.234;6.804;2024-02-04T09:52:40;8.53;;;5.80;;
10711;SDS011;5407;51.234;6.804;2024-02-04T09:55:15;7.33;;;5.30;;
10711;SDS011;5407;51.234;6.804;2024-02-04T09:57:44;8.10;;;4.87;;
10711;SDS011;5407;51.234;6.804;2024-02-04T10:00:12;6.17;;;5.07;;
10711;SDS011;5407;51.234;6.804;2024-02-04T10:02:40;8.20;;;5.77;;
10711;SDS011;5407;51.234;6.804;2024-02-04T10:05:07;5.33;;;4.77;;
10711;SDS011;5407;51.234;6.804;2024-02-04T10:07:37;5.20;;;4.70;;
10711;SDS011;5407;51.234;6.804;2024-02-04T10:10:05;8.53;;;5.20;;
10711;SDS011;5407;51.234;6.804;2024-02-04T10:12:33;5.73;;;5.20;;
10711;SDS011;5407;51.234;6.804;2024-02-04T10:15:04;5.17;;;4.67;;
10711;SDS011;5407;51.234;6.804;2024-02-04T10:17:32;8.87;;;4.90;;
10711;SDS011;5407;51.234;6.804;2024-02-04T10:19:59;5.70;;;4.70;;
10711;SDS011;5407;51.234;6.804;2024-02-04T10:22:26;6.23;;;5.30;;
10711;SDS011;5407;51.234;6.804;2024-02-04T10:24:55;5.20;;;4.70;;
10711;SDS011;5407;51.234;6.804;2024-02-04T10:27:32;8.67;;;5.23;;
10711;SDS011;5407;51.234;6.804;2024-02-04T10:29:58;6.77;;;4.80;;
10711;SDS011;5407;51.234;6.804;2024-02-04T10:32:26;9.57;;;4.90;;
10711;SDS011;5407;51.234;6.804;2024-02-04T10:34:53;8.10;;;4.77;;
10711;SDS011;5407;51.234;6.804;2024-02-04T10:37:20;6.50;;;5.00;;
10711;SDS011;5407;51.234;6.804;2024-02-04T10:39:46;8.07;;;5.10;;
10711;SDS011;5407;51.234;6.804;2024-02-04T10:42:15;7.03;;;5.43;;
10711;SDS011;5407;51.234;6.804;2024-02-04T10:44:46;9.30;;;6.27;;
10711;SDS011;5407;51.234;6.804;2024-02-04T10:47:16;6.27;;;5.67;;
10711;SDS011;5407;51.234;6.804;2024-02-04T10:49:50;7.83;;;6.40;;
10711;SDS011;5407;51.234;6.804;2024-02-04T10:52:18;7.07;;;5.63;;
10711;SDS011;5407;51.234;6.804;2024-02-04T10:54:46;9.67;;;5.97;;
10711;SDS011;5407;51.234;6.804;2024-02-04T10:57:19;10.43;;;6.10;;
10711;SDS011;5407;51.234;6.804;2024-02-04T10:59:47;9.00;;;6.30;;
10711;SDS011;5407;51.234;6.804;2024-02-04T11:02:15;8.83;;;6.33;;
10711;SDS011;5407;51.234;6.804;2024-02-04T11:04:43;9.00;;;6.47;;
10711;SDS011;5407;51.234;6.804;2024-02-04T11:07:11;10.23;;;7.57;;
10711;SDS011;5407;51.234;6.804;2024-02-04T11:09:40;9.73;;;7.20;;
10711;SDS011;5407;51.234;6.804;2024-02-04T11:12:09;8.53;;;7.03;;
10711;SDS011;5407;51.234;6.804;2024-02-04T11:14:42;9.50;;;6.23;;
10711;SDS011;5407;51.234;6.804;2024-02-04T11:20:20;8.07;;;6.80;;
10711;SDS011;5407;51.234;6.804;2024-02-04T11:23:20;9.47;;;6.73;;
10711;SDS011;5407;51.234;6.804;2024-02-04T11:25:58;9.03;;;6.50;;
10711;SDS011;5407;51.234;6.804;2024-02-04T11:28:26;8.63;;;6.83;;
10711;SDS011;5407;51.234;6.804;2024-02-04T11:30:55;9.13;;;6.50;;
10711;SDS011;5407;51.234;6.804;2024-02-04T11:33:23;9.27;;;6.97;;
10711;SDS011;5407;51.234;6.804;2024-02-04T11:36:00;11.13;;;6.53;;
10711;SDS011;5407;51.234;6.804;2024-02-04T11:38:29;8.13;;;6.17;;
10711;SDS011;5407;51.234;6.804;2024-02-04T11:40:57;9.80;;;6.43;;
10711;SDS011;5407;51.234;6.804;2024-02-04T11:43:24;7.10;;;5.73;;
10711;SDS011;5407;51.234;6.804;2024-02-04T11:45:51;9.53;;;5.93;;
10711;SDS011;5407;51.234;6.804;2024-02-04T11:48:28;12.10;;;6.33;;
10711;SDS011;5407;51.234;6.804;2024-02-04T11:50:57;7.93;;;5.90;;
10711;SDS011;5407;51.234;6.804;2024-02-04T11:53:25;11.20;;;5.77;;
10711;SDS011;5407;51.234;6.804;2024-02-04T11:55:54;9.13;;;5.33;;
10711;SDS011;5407;51.234;6.804;2024-02-04T11:58:21;8.50;;;5.67;;
10711;SDS011;5407;51.234;6.804;2024-02-04T12:00:50;9.77;;;5.37;;
10711;SDS011;5407;51.234;6.804;2024-02-04T12:03:27;9.90;;;5.43;;
10711;SDS011;5407;51.234;6.804;2024-02-04T12:05:55;9.97;;;4.87;;
10711;SDS011;5407;51.234;6.804;2024-02-04T12:08:23;8.47;;;5.30;;
10711;SDS011;5407;51.234;6.804;2024-02-04T12:10:51;8.87;;;5.80;;
10711;SDS011;5407;51.234;6.804;2024-02-04T12:13:18;7.50;;;5.57;;
10711;SDS011;5407;51.234;6.804;2024-02-04T12:15:46;10.10;;;5.03;;
10711;SDS011;5407;51.234;6.804;2024-02-04T12:18:13;6.80;;;5.20;;
10711;SDS011;5407;51.234;6.804;2024-02-04T12:20:46;6.53;;;4.97;;
10711;SDS011;5407;51.234;6.804;2024-02-04T12:23:14;7.47;;;5.30;;
10711;SDS011;5407;51.234;6.804;2024-02-04T12:25:42;7.87;;;5.37;;
10711;SDS011;5407;51.234;6.804;2024-02-04T12:28:09;9.83;;;5.17;;
10711;SDS011;5407;51.234;6.804;2024-02-04T12:30:37;7.57;;;5.03;;
10711;SDS011;5407;51.234;6.804;2024-02-04T12:33:05;8.80;;;5.73;;
10711;SDS011;5407;51.234;6.804;2024-02-04T12:35:32;8.00;;;5.27;;
10711;SDS011;5407;51.234;6.804;2024-02-04T12:38:01;8.30;;;5.10;;
10711;SDS011;5407;51.234;6.804;2024-02-04T12:40:29;6.10;;;4.37;;
10711;SDS011;5407;51.234;6.804;2024-02-04T12:42:57;9.80;;;4.87;;
10711;SDS011;5407;51.234;6.804;2024-02-04T12:45:26;8.80;;;4.40;;
10711;SDS011;5407;51.234;6.804;2024-02-04T12:47:55;6.90;;;4.47;;
10711;SDS011;5407;51.234;6.804;2024-02-04T12:50:22;8.17;;;4.20;;
10711;SDS011;5407;51.234;6.804;2024-02-04T12:53:01;7.13;;;4.40;;
10711;SDS011;5407;51.234;6.804;2024-02-04T12:55:32;6.37;;;3.93;;
10711;SDS011;5407;51.234;6.804;2024-02-04T12:58:03;6.00;;;3.80;;
10711;SDS011;5407;51.234;6.804;2024-02-04T13:00:31;7.73;;;3.90;;
10711;SDS011;5407;51.234;6.804;2024-02-04T13:02:58;5.17;;;3.57;;
10711;SDS011;5407;51.234;6.804;2024-02-04T13:05:25;7.17;;;4.00;;
10711;SDS011;5407;51.234;6.804;2024-02-04T13:07:55;6.30;;;4.10;;
10711;SDS011;5407;51.234;6.804;2024-02-04T13:10:24;4.10;;;3.70;;
10711;SDS011;5407;51.234;6.804;2024-02-04T13:12:58;4.97;;;3.63;;
10711;SDS011;5407;51.234;6.804;2024-02-04T13:15:31;8.83;;;4.50;;
10711;SDS011;5407;51.234;6.804;2024-02-04T13:17:59;5.13;;;3.90;;
10711;SDS011;5407;51.234;6.804;2024-02-04T13:20:26;6.93;;;4.07;;
10711;SDS011;5407;51.234;6.804;2024-02-04T13:22:53;7.23;;;5.07;;
10711;SDS011;5407;51.234;6.804;2024-02-04T13:25:20;9.47;;;7.50;;
10711;SDS011;5407;51.234;6.804;2024-02-04T13:27:49;8.30;;;4.67;;
10711;SDS011;5407;51.234;6.804;2024-02-04T13:30:16;9.50;;;5.10;;
10711;SDS011;5407;51.234;6.804;2024-02-04T13:32:44;5.57;;;4.63;;
10711;SDS011;5407;51.234;6.804;2024-02-04T13:35:10;6.93;;;4.67;;
10711;SDS011;5407;51.234;6.804;2024-02-04T13:37:38;9.90;;;4.90;;
10711;SDS011;5407;51.234;6.804;2024-02-04T13:40:06;7.63;;;4.30;;
10711;SDS011;5407;51.234;6.804;2024-02-04T13:42:35;11.13;;;4.73;;
10711;SDS011;5407;51.234;6.804;2024-02-04T13:45:04;7.93;;;4.57;;
10711;SDS011;5407;51.234;6.804;2024-02-04T13:47:31;7.43;;;4.47;;
10711;SDS011;5407;51.234;6.804;2024-02-04T13:50:02;7.17;;;4.47;;
10711;SDS011;5407;51.234;6.804;2024-02-04T13:52:29;8.70;;;4.43;;
10711;SDS011;5407;51.234;6.804;2024-02-04T13:54:56;7.63;;;4.50;;
10711;SDS011;5407;51.234;6.804;2024-02-04T13:57:23;7.37;;;4.67;;
10711;SDS011;5407;51.234;6.804;2024-02-04T13:59:50;6.43;;;4.40;;
10711;SDS011;5407;51.234;6.804;2024-02-04T14:02:18;7.80;;;4.53;;
10711;SDS011;5407;51.234;6.804;2024-02-04T14:04:45;10.30;;;4.50;;
10711;SDS011;5407;51.234;6.804;2024-02-04T14:07:12;5.73;;;4.60;;
10711;SDS011;5407;51.234;6.804;2024-02-04T14:09:38;7.43;;;5.20;;
10711;SDS011;5407;51.234;6.804;2024-02-04T14:12:06;9.23;;;4.83;;
10711;SDS011;5407;51.234;6.804;2024-02-04T14:14:33;8.77;;;4.77;;
10711;SDS011;5407;51.234;6.804;2024-02-04T14:17:01;7.90;;;4.80;;
10711;SDS011;5407;51.234;6.804;2024-02-04T14:19:30;7.23;;;4.90;;
10711;SDS011;5407;51.234;6.804;2024-02-04T14:21:57;8.77;;;4.60;;
10711;SDS011;5407;51.234;6.804;2024-02-04T14:24:23;5.67;;;4.60;;
10711;SDS011;5407;51.234;6.804;2024-02-04T14:26:55;6.03;;;4.77;;
10711;SDS011;5407;51.234;6.804;2024-02-04T14:29:23;6.03;;;4.30;;
10711;SDS011;5407;51.234;6.804;2024-02-04T14:31:50;6.53;;;4.00;;
10711;SDS011;5407;51.234;6.804;2024-02-04T14:34:17;4.83;;;3.83;;
10711;SDS011;5407;51.234;6.804;2024-02-04T14:36:45;8.70;;;3.90;;
10711;SDS011;5407;51.234;6.804;2024-02-04T14:39:12;6.70;;;3.80;;
10711;SDS011;5407;51.234;6.804;2024-02-04T14:41:39;5.83;;;3.80;;
10711;SDS011;5407;51.234;6.804;2024-02-04T14:44:06;5.33;;;3.90;;
10711;SDS011;5407;51.234;6.804;2024-02-04T14:46:35;4.27;;;3.50;;
10711;SDS011;5407;51.234;6.804;2024-02-04T14:49:02;6.67;;;3.47;;
10711;SDS011;5407;51.234;6.804;2024-02-04T14:51:29;7.63;;;3.60;;
10711;SDS011;5407;51.234;6.804;2024-02-04T14:53:58;4.83;;;3.27;;
10711;SDS011;5407;51.234;6.804;2024-02-04T14:56:25;5.00;;;3.30;;
10711;SDS011;5407;51.234;6.804;2024-02-04T14:58:52;6.83;;;3.50;;
10711;SDS011;5407;51.234;6.804;2024-02-04T15:01:19;4.00;;;3.27;;
10711;SDS011;5407;51.234;6.804;2024-02-04T15:03:46;7.97;;;3.60;;